sensor_id;sensor_type;location;lat;lon;timestamp;temperature;humidity
20233;DHT22;37438;55.674;13.074;2023-05-07T00:01:37;3.10;99.90
20233;DHT22;37438;55.674;13.074;2023-05-07T00:04:41;3.10;99.90
20233;DHT22;37438;55.674;13.074;2023-05-07T00:07:46;3.10;99.90
20233;DHT22;37438;55.674;13.074;2023-05-07T00:10:51;3.10;99.90
20233;DHT22;37438;55.674;13.074;2023-05-07T00:13:55;3.10;1.00
20233;DHT22;37438;55.674;13.074;2023-05-07T00:17:00;3.10;1.00
20233;DHT22;37438;55.674;13.074;2023-05-07T00:20:05;3.10;19.50
20233;DHT22;37438;55.674;13.074;2023-05-07T00:23:09;3.20;29.40
20233;DHT22;37438;55.674;13.074;2023-05-07T00:26:13;3.10;60.80
20233;DHT22;37438;55.674;13.074;2023-05-07T00:29:20;3.10;98.30
20233;DHT22;37438;55.674;13.074;2023-05-07T00:32:24;3.20;99.90
20233;DHT22;37438;55.674;13.074;2023-05-07T00:35:29;3.20;99.90
20233;DHT22;37438;55.674;13.074;2023-05-07T00:38:34;3.10;99.90
20233;DHT22;37438;55.674;13.074;2023-05-07T00:41:38;3.10;99.90
20233;DHT22;37438;55.674;13.074;2023-05-07T00:44:42;3.10;99.90
20233;DHT22;37438;55.674;13.074;2023-05-07T00:47:47;3.00;99.90
20233;DHT22;37438;55.674;13.074;2023-05-07T00:50:52;3.10;99.90
20233;DHT22;37438;55.674;13.074;2023-05-07T00:53:56;3.10;99.90
20233;DHT22;37438;55.674;13.074;2023-05-07T00:57:02;3.10;1.00
20233;DHT22;37438;55.674;13.074;2023-05-07T01:00:09;3.10;1.00
20233;DHT22;37438;55.674;13.074;2023-05-07T01:03:14;3.00;1.00
20233;DHT22;37438;55.674;13.074;2023-05-07T01:06:21;3.10;1.00
20233;DHT22;37438;55.674;13.074;2023-05-07T01:09:28;3.10;27.70
20233;DHT22;37438;55.674;13.074;2023-05-07T01:12:33;3.00;95.40
20233;DHT22;37438;55.674;13.074;2023-05-07T01:15:38;3.00;99.90
20233;DHT22;37438;55.674;13.074;2023-05-07T01:18:44;3.00;99.90
20233;DHT22;37438;55.674;13.074;2023-05-07T01:22:00;3.10;99.90
20233;DHT22;37438;55.674;13.074;2023-05-07T01:25:07;3.20;99.90
20233;DHT22;37438;55.674;13.074;2023-05-07T01:28:16;3.20;99.90
20233;DHT22;37438;55.674;13.074;2023-05-07T01:31:23;3.20;99.90
20233;DHT22;37438;55.674;13.074;2023-05-07T01:34:31;3.20;99.90
20233;DHT22;37438;55.674;13.074;2023-05-07T01:37:38;3.20;99.90
20233;DHT22;37438;55.674;13.074;2023-05-07T01:40:43;3.20;99.90
20233;DHT22;37438;55.674;13.074;2023-05-07T01:43:50;3.20;99.90
20233;DHT22;37438;55.674;13.074;2023-05-07T01:46:57;3.20;99.90
20233;DHT22;37438;55.674;13.074;2023-05-07T01:50:01;3.20;99.90
20233;DHT22;37438;55.674;13.074;2023-05-07T01:53:06;3.20;99.90
20233;DHT22;37438;55.674;13.074;2023-05-07T01:56:10;3.20;99.90
20233;DHT22;37438;55.674;13.074;2023-05-07T01:59:17;3.10;99.90
20233;DHT22;37438;55.674;13.074;2023-05-07T02:02:22;3.20;99.90
20233;DHT22;37438;55.674;13.074;2023-05-07T02:05:26;3.10;99.90
20233;DHT22;37438;55.674;13.074;2023-05-07T02:08:39;3.20;99.90
20233;DHT22;37438;55.674;13.074;2023-05-07T02:11:44;3.10;99.90
20233;DHT22;37438;55.674;13.074;2023-05-07T02:14:50;3.10;99.90
20233;DHT22;37438;55.674;13.074;2023-05-07T02:17:59;3.10;99.90
20233;DHT22;37438;55.674;13.074;2023-05-07T02:21:04;3.10;99.90
20233;DHT22;37438;55.674;13.074;2023-05-07T02:24:09;3.00;99.90
20233;DHT22;37438;55.674;13.074;2023-05-07T02:27:13;3.00;99.90
20233;DHT22;37438;55.674;13.074;2023-05-07T02:30:18;3.00;99.90
20233;DHT22;37438;55.674;13.074;2023-05-07T02:33:27;3.00;99.90
20233;DHT22;37438;55.674;13.074;2023-05-07T02:36:32;3.00;99.90
20233;DHT22;37438;55.674;13.074;2023-05-07T02:39:45;2.90;99.90
20233;DHT22;37438;55.674;13.074;2023-05-07T02:42:49;2.90;99.90
20233;DHT22;37438;55.674;13.074;2023-05-07T02:46:04;2.90;99.90
20233;DHT22;37438;55.674;13.074;2023-05-07T02:49:11;2.90;99.90
20233;DHT22;37438;55.674;13.074;2023-05-07T02:52:15;2.80;99.90
20233;DHT22;37438;55.674;13.074;2023-05-07T02:55:20;2.80;99.90
20233;DHT22;37438;55.674;13.074;2023-05-07T02:58:24;2.70;99.90
20233;DHT22;37438;55.674;13.074;2023-05-07T03:01:29;2.70;99.90
20233;DHT22;37438;55.674;13.074;2023-05-07T03:04:42;2.70;99.90
20233;DHT22;37438;55.674;13.074;2023-05-07T03:07:47;2.70;99.90
20233;DHT22;37438;55.674;13.074;2023-05-07T03:10:52;2.70;99.90
20233;DHT22;37438;55.674;13.074;2023-05-07T03:13:56;2.70;99.90
20233;DHT22;37438;55.674;13.074;2023-05-07T03:17:00;2.70;99.90
20233;DHT22;37438;55.674;13.074;2023-05-07T03:20:06;2.70;99.90
20233;DHT22;37438;55.674;13.074;2023-05-07T03:23:11;2.70;99.90
20233;DHT22;37438;55.674;13.074;2023-05-07T03:26:15;2.70;99.90
20233;DHT22;37438;55.674;13.074;2023-05-07T03:29:21;2.80;99.90
20233;DHT22;37438;55.674;13.074;2023-05-07T03:32:25;2.70;99.90
20233;DHT22;37438;55.674;13.074;2023-05-07T03:35:31;2.80;99.90
20233;DHT22;37438;55.674;13.074;2023-05-07T03:38:36;2.80;99.90
20233;DHT22;37438;55.674;13.074;2023-05-07T03:41:40;2.80;99.90
20233;DHT22;37438;55.674;13.074;2023-05-07T03:44:45;2.80;99.90
20233;DHT22;37438;55.674;13.074;2023-05-07T03:47:50;2.80;99.90
20233;DHT22;37438;55.674;13.074;2023-05-07T03:50:58;2.80;99.90
20233;DHT22;37438;55.674;13.074;2023-05-07T03:54:07;3.00;99.90
20233;DHT22;37438;55.674;13.074;2023-05-07T03:57:11;3.20;99.90
20233;DHT22;37438;55.674;13.074;2023-05-07T04:00:16;3.40;99.90
20233;DHT22;37438;55.674;13.074;2023-05-07T04:03:26;3.50;99.90
20233;DHT22;37438;55.674;13.074;2023-05-07T04:06:34;3.60;99.90
20233;DHT22;37438;55.674;13.074;2023-05-07T04:09:38;3.80;99.90
20233;DHT22;37438;55.674;13.074;2023-05-07T04:12:43;3.90;99.90
20233;DHT22;37438;55.674;13.074;2023-05-07T04:15:54;4.00;99.90
20233;DHT22;37438;55.674;13.074;2023-05-07T04:18:59;4.00;99.90
20233;DHT22;37438;55.674;13.074;2023-05-07T04:22:04;3.90;99.90
20233;DHT22;37438;55.674;13.074;2023-05-07T04:25:09;3.90;99.90
20233;DHT22;37438;55.674;13.074;2023-05-07T04:28:14;4.10;99.90
20233;DHT22;37438;55.674;13.074;2023-05-07T04:31:19;4.30;99.90
20233;DHT22;37438;55.674;13.074;2023-05-07T04:34:29;4.60;99.90
20233;DHT22;37438;55.674;13.074;2023-05-07T04:37:35;4.80;99.90
20233;DHT22;37438;55.674;13.074;2023-05-07T04:40:41;5.00;30.90
20233;DHT22;37438;55.674;13.074;2023-05-07T04:43:48;5.20;99.90
20233;DHT22;37438;55.674;13.074;2023-05-07T04:46:54;5.30;99.90
20233;DHT22;37438;55.674;13.074;2023-05-07T04:49:58;5.60;1.00
20233;DHT22;37438;55.674;13.074;2023-05-07T04:53:03;6.00;99.90
20233;DHT22;37438;55.674;13.074;2023-05-07T04:56:08;6.30;1.00
20233;DHT22;37438;55.674;13.074;2023-05-07T04:59:19;6.20;99.90
20233;DHT22;37438;55.674;13.074;2023-05-07T05:02:24;6.20;21.30
20233;DHT22;37438;55.674;13.074;2023-05-07T05:05:29;6.30;99.90
20233;DHT22;37438;55.674;13.074;2023-05-07T05:08:34;6.70;99.90
20233;DHT22;37438;55.674;13.074;2023-05-07T05:11:40;6.50;19.50
20233;DHT22;37438;55.674;13.074;2023-05-07T05:14:45;6.50;1.00
20233;DHT22;37438;55.674;13.074;2023-05-07T05:17:49;6.50;99.90
20233;DHT22;37438;55.674;13.074;2023-05-07T05:20:54;6.90;99.90
20233;DHT22;37438;55.674;13.074;2023-05-07T05:23:59;7.30;99.90
20233;DHT22;37438;55.674;13.074;2023-05-07T05:27:05;7.10;1.00
20233;DHT22;37438;55.674;13.074;2023-05-07T05:30:09;7.00;1.00
20233;DHT22;37438;55.674;13.074;2023-05-07T05:33:15;6.80;1.00
20233;DHT22;37438;55.674;13.074;2023-05-07T05:36:20;7.00;1.00
20233;DHT22;37438;55.674;13.074;2023-05-07T05:39:26;6.80;1.00
20233;DHT22;37438;55.674;13.074;2023-05-07T05:42:31;6.90;1.00
20233;DHT22;37438;55.674;13.074;2023-05-07T05:45:37;7.10;1.00
20233;DHT22;37438;55.674;13.074;2023-05-07T05:48:42;7.10;99.90
20233;DHT22;37438;55.674;13.074;2023-05-07T05:51:48;7.20;99.90
20233;DHT22;37438;55.674;13.074;2023-05-07T05:54:53;7.20;99.90
20233;DHT22;37438;55.674;13.074;2023-05-07T05:58:01;7.70;99.90
20233;DHT22;37438;55.674;13.074;2023-05-07T06:01:07;8.00;99.90
20233;DHT22;37438;55.674;13.074;2023-05-07T06:04:14;8.20;37.60
20233;DHT22;37438;55.674;13.074;2023-05-07T06:07:18;8.60;99.90
20233;DHT22;37438;55.674;13.074;2023-05-07T06:10:22;8.70;99.90
20233;DHT22;37438;55.674;13.074;2023-05-07T06:13:28;9.00;99.90
20233;DHT22;37438;55.674;13.074;2023-05-07T06:16:33;8.80;99.90
20233;DHT22;37438;55.674;13.074;2023-05-07T06:19:38;9.00;96.10
20233;DHT22;37438;55.674;13.074;2023-05-07T06:22:43;9.40;1.00
20233;DHT22;37438;55.674;13.074;2023-05-07T06:25:50;9.60;1.00
20233;DHT22;37438;55.674;13.074;2023-05-07T06:28:56;9.80;99.90
20233;DHT22;37438;55.674;13.074;2023-05-07T06:32:11;9.60;99.90
20233;DHT22;37438;55.674;13.074;2023-05-07T06:35:18;10.10;99.90
20233;DHT22;37438;55.674;13.074;2023-05-07T06:38:22;10.70;99.90
20233;DHT22;37438;55.674;13.074;2023-05-07T06:41:27;10.80;93.30
20233;DHT22;37438;55.674;13.074;2023-05-07T06:44:35;11.10;92.40
20233;DHT22;37438;55.674;13.074;2023-05-07T06:47:45;11.10;27.90
20233;DHT22;37438;55.674;13.074;2023-05-07T06:50:51;11.30;1.00
20233;DHT22;37438;55.674;13.074;2023-05-07T06:53:55;11.80;1.00
20233;DHT22;37438;55.674;13.074;2023-05-07T06:57:00;12.10;99.90
20233;DHT22;37438;55.674;13.074;2023-05-07T07:00:06;12.20;99.90
20233;DHT22;37438;55.674;13.074;2023-05-07T07:03:22;12.40;1.00
20233;DHT22;37438;55.674;13.074;2023-05-07T07:06:28;12.80;99.90
20233;DHT22;37438;55.674;13.074;2023-05-07T07:09:32;12.60;99.90
20233;DHT22;37438;55.674;13.074;2023-05-07T07:12:38;12.70;99.90
20233;DHT22;37438;55.674;13.074;2023-05-07T07:15:43;12.80;99.90
20233;DHT22;37438;55.674;13.074;2023-05-07T07:18:48;12.80;99.90
20233;DHT22;37438;55.674;13.074;2023-05-07T07:21:52;13.40;99.90
20233;DHT22;37438;55.674;13.074;2023-05-07T07:24:57;13.10;35.70
20233;DHT22;37438;55.674;13.074;2023-05-07T07:28:02;13.00;29.20
20233;DHT22;37438;55.674;13.074;2023-05-07T07:31:06;13.50;1.00
20233;DHT22;37438;55.674;13.074;2023-05-07T07:34:11;13.50;1.00
20233;DHT22;37438;55.674;13.074;2023-05-07T07:37:16;13.90;99.90
20233;DHT22;37438;55.674;13.074;2023-05-07T07:40:21;13.90;99.90
20233;DHT22;37438;55.674;13.074;2023-05-07T07:43:26;13.50;99.90
20233;DHT22;37438;55.674;13.074;2023-05-07T07:46:31;13.90;99.90
20233;DHT22;37438;55.674;13.074;2023-05-07T07:49:36;14.20;99.90
20233;DHT22;37438;55.674;13.074;2023-05-07T07:52:43;14.70;99.90
20233;DHT22;37438;55.674;13.074;2023-05-07T07:55:48;14.30;99.90
20233;DHT22;37438;55.674;13.074;2023-05-07T07:58:56;14.80;99.90
20233;DHT22;37438;55.674;13.074;2023-05-07T08:02:01;15.00;99.90
20233;DHT22;37438;55.674;13.074;2023-05-07T08:05:07;14.30;99.90
20233;DHT22;37438;55.674;13.074;2023-05-07T08:08:12;15.30;99.90
20233;DHT22;37438;55.674;13.074;2023-05-07T08:11:18;15.50;99.90
20233;DHT22;37438;55.674;13.074;2023-05-07T08:14:23;15.50;99.90
20233;DHT22;37438;55.674;13.074;2023-05-07T08:17:28;15.70;99.90
20233;DHT22;37438;55.674;13.074;2023-05-07T08:20:33;15.30;75.00
20233;DHT22;37438;55.674;13.074;2023-05-07T08:23:41;16.30;37.30
20233;DHT22;37438;55.674;13.074;2023-05-07T08:26:46;16.50;15.20
20233;DHT22;37438;55.674;13.074;2023-05-07T08:29:52;16.10;1.00
20233;DHT22;37438;55.674;13.074;2023-05-07T08:32:57;15.90;1.00
20233;DHT22;37438;55.674;13.074;2023-05-07T08:36:02;15.80;1.00
20233;DHT22;37438;55.674;13.074;2023-05-07T08:39:06;16.60;1.00
20233;DHT22;37438;55.674;13.074;2023-05-07T08:42:12;15.70;1.00
20233;DHT22;37438;55.674;13.074;2023-05-07T08:45:20;15.80;1.00
20233;DHT22;37438;55.674;13.074;2023-05-07T08:48:27;16.50;1.00
20233;DHT22;37438;55.674;13.074;2023-05-07T08:51:42;16.20;1.00
20233;DHT22;37438;55.674;13.074;2023-05-07T08:54:46;16.80;1.00
20233;DHT22;37438;55.674;13.074;2023-05-07T08:57:52;16.80;1.00
20233;DHT22;37438;55.674;13.074;2023-05-07T09:00:59;17.00;1.00
20233;DHT22;37438;55.674;13.074;2023-05-07T09:04:05;17.00;1.00
20233;DHT22;37438;55.674;13.074;2023-05-07T09:07:11;17.20;1.00
20233;DHT22;37438;55.674;13.074;2023-05-07T09:10:20;16.70;1.00
20233;DHT22;37438;55.674;13.074;2023-05-07T09:13:26;17.20;1.00
20233;DHT22;37438;55.674;13.074;2023-05-07T09:16:31;17.50;1.00
20233;DHT22;37438;55.674;13.074;2023-05-07T09:19:37;17.90;1.00
20233;DHT22;37438;55.674;13.074;2023-05-07T09:22:44;16.90;1.00
20233;DHT22;37438;55.674;13.074;2023-05-07T09:26:00;16.70;1.00
20233;DHT22;37438;55.674;13.074;2023-05-07T09:29:07;16.80;1.00
20233;DHT22;37438;55.674;13.074;2023-05-07T09:32:12;16.60;1.00
20233;DHT22;37438;55.674;13.074;2023-05-07T09:35:19;16.60;1.00
20233;DHT22;37438;55.674;13.074;2023-05-07T09:38:30;17.20;1.00
20233;DHT22;37438;55.674;13.074;2023-05-07T09:41:49;17.20;1.00
20233;DHT22;37438;55.674;13.074;2023-05-07T09:45:09;17.50;1.00
20233;DHT22;37438;55.674;13.074;2023-05-07T09:48:17;17.50;1.00
20233;DHT22;37438;55.674;13.074;2023-05-07T09:51:39;17.40;1.00
20233;DHT22;37438;55.674;13.074;2023-05-07T09:54:47;16.60;1.00
20233;DHT22;37438;55.674;13.074;2023-05-07T09:57:57;18.10;1.00
20233;DHT22;37438;55.674;13.074;2023-05-07T10:01:04;17.90;1.00
20233;DHT22;37438;55.674;13.074;2023-05-07T10:04:11;18.20;1.00
20233;DHT22;37438;55.674;13.074;2023-05-07T10:07:17;18.00;1.00
20233;DHT22;37438;55.674;13.074;2023-05-07T10:10:23;17.60;1.00
20233;DHT22;37438;55.674;13.074;2023-05-07T10:13:28;18.00;1.00
20233;DHT22;37438;55.674;13.074;2023-05-07T10:16:36;18.10;1.00
20233;DHT22;37438;55.674;13.074;2023-05-07T10:19:45;17.10;1.00
20233;DHT22;37438;55.674;13.074;2023-05-07T10:22:52;17.10;1.00
20233;DHT22;37438;55.674;13.074;2023-05-07T10:26:06;18.00;1.00
20233;DHT22;37438;55.674;13.074;2023-05-07T10:29:30;17.30;1.00
20233;DHT22;37438;55.674;13.074;2023-05-07T10:32:47;17.00;1.00
20233;DHT22;37438;55.674;13.074;2023-05-07T10:36:00;18.10;1.00
20233;DHT22;37438;55.674;13.074;2023-05-07T10:39:08;17.80;1.00
20233;DHT22;37438;55.674;13.074;2023-05-07T10:42:14;17.90;1.00
20233;DHT22;37438;55.674;13.074;2023-05-07T10:45:25;18.00;1.00
20233;DHT22;37438;55.674;13.074;2023-05-07T10:48:32;18.40;1.00
20233;DHT22;37438;55.674;13.074;2023-05-07T10:51:43;17.80;1.00
20233;DHT22;37438;55.674;13.074;2023-05-07T10:58:27;18.00;1.00
20233;DHT22;37438;55.674;13.074;2023-05-07T11:01:58;18.30;1.00
20233;DHT22;37438;55.674;13.074;2023-05-07T11:05:23;18.50;1.00
20233;DHT22;37438;55.674;13.074;2023-05-07T11:09:03;18.30;1.00
20233;DHT22;37438;55.674;13.074;2023-05-07T11:15:47;18.20;1.00
20233;DHT22;37438;55.674;13.074;2023-05-07T11:19:05;18.20;1.00
20233;DHT22;37438;55.674;13.074;2023-05-07T11:22:36;18.40;1.00
20233;DHT22;37438;55.674;13.074;2023-05-07T11:29:11;19.00;1.00
20233;DHT22;37438;55.674;13.074;2023-05-07T11:32:22;18.30;1.00
20233;DHT22;37438;55.674;13.074;2023-05-07T11:35:30;18.50;1.00
20233;DHT22;37438;55.674;13.074;2023-05-07T11:38:35;18.30;1.00
20233;DHT22;37438;55.674;13.074;2023-05-07T11:41:42;18.30;1.00
20233;DHT22;37438;55.674;13.074;2023-05-07T11:44:47;18.10;1.00
20233;DHT22;37438;55.674;13.074;2023-05-07T11:47:52;19.00;1.00
20233;DHT22;37438;55.674;13.074;2023-05-07T11:51:04;18.70;1.00
20233;DHT22;37438;55.674;13.074;2023-05-07T11:54:09;19.20;1.00
20233;DHT22;37438;55.674;13.074;2023-05-07T11:57:15;18.40;1.00
20233;DHT22;37438;55.674;13.074;2023-05-07T12:00:20;18.10;1.00
20233;DHT22;37438;55.674;13.074;2023-05-07T12:03:25;18.80;1.00
20233;DHT22;37438;55.674;13.074;2023-05-07T12:06:35;18.60;1.00
20233;DHT22;37438;55.674;13.074;2023-05-07T12:09:44;18.60;1.00
20233;DHT22;37438;55.674;13.074;2023-05-07T12:12:48;19.10;1.00
20233;DHT22;37438;55.674;13.074;2023-05-07T12:15:54;18.00;1.00
20233;DHT22;37438;55.674;13.074;2023-05-07T12:18:59;18.20;1.00
20233;DHT22;37438;55.674;13.074;2023-05-07T12:22:04;18.20;1.00
20233;DHT22;37438;55.674;13.074;2023-05-07T12:25:09;18.40;1.00
20233;DHT22;37438;55.674;13.074;2023-05-07T12:28:18;18.70;1.00
20233;DHT22;37438;55.674;13.074;2023-05-07T12:31:25;18.30;1.00
20233;DHT22;37438;55.674;13.074;2023-05-07T12:34:31;18.00;1.00
20233;DHT22;37438;55.674;13.074;2023-05-07T12:37:35;19.00;1.00
20233;DHT22;37438;55.674;13.074;2023-05-07T12:40:40;18.60;1.00
20233;DHT22;37438;55.674;13.074;2023-05-07T12:43:46;18.20;1.00
20233;DHT22;37438;55.674;13.074;2023-05-07T12:46:51;18.60;1.00
20233;DHT22;37438;55.674;13.074;2023-05-07T12:49:56;19.60;1.00
20233;DHT22;37438;55.674;13.074;2023-05-07T12:53:03;18.30;1.00
20233;DHT22;37438;55.674;13.074;2023-05-07T12:56:10;18.20;1.00
20233;DHT22;37438;55.674;13.074;2023-05-07T12:59:15;18.20;1.00
20233;DHT22;37438;55.674;13.074;2023-05-07T13:02:19;18.40;1.00
20233;DHT22;37438;55.674;13.074;2023-05-07T13:05:24;18.10;1.00
20233;DHT22;37438;55.674;13.074;2023-05-07T13:08:35;17.80;1.00
20233;DHT22;37438;55.674;13.074;2023-05-07T13:11:40;17.60;1.00
20233;DHT22;37438;55.674;13.074;2023-05-07T13:14:45;17.70;1.00
20233;DHT22;37438;55.674;13.074;2023-05-07T13:17:49;17.80;1.00
20233;DHT22;37438;55.674;13.074;2023-05-07T13:20:54;18.40;1.00
20233;DHT22;37438;55.674;13.074;2023-05-07T13:23:58;18.00;1.00
20233;DHT22;37438;55.674;13.074;2023-05-07T13:27:02;18.60;1.00
20233;DHT22;37438;55.674;13.074;2023-05-07T13:30:07;18.70;1.00
20233;DHT22;37438;55.674;13.074;2023-05-07T13:33:12;18.40;1.00
20233;DHT22;37438;55.674;13.074;2023-05-07T13:36:17;17.90;1.00
20233;DHT22;37438;55.674;13.074;2023-05-07T13:39:21;17.70;1.00
20233;DHT22;37438;55.674;13.074;2023-05-07T13:42:26;18.00;1.00
20233;DHT22;37438;55.674;13.074;2023-05-07T13:45:30;18.70;1.00
20233;DHT22;37438;55.674;13.074;2023-05-07T13:48:34;17.50;1.00
20233;DHT22;37438;55.674;13.074;2023-05-07T13:51:39;17.90;1.00
20233;DHT22;37438;55.674;13.074;2023-05-07T13:54:44;17.80;1.00
20233;DHT22;37438;55.674;13.074;2023-05-07T13:57:58;17.60;1.00
20233;DHT22;37438;55.674;13.074;2023-05-07T14:01:02;17.80;1.00
20233;DHT22;37438;55.674;13.074;2023-05-07T14:04:07;17.70;1.00
20233;DHT22;37438;55.674;13.074;2023-05-07T14:07:11;17.70;1.00
20233;DHT22;37438;55.674;13.074;2023-05-07T14:10:16;17.40;1.00
20233;DHT22;37438;55.674;13.074;2023-05-07T14:13:21;17.70;1.00
20233;DHT22;37438;55.674;13.074;2023-05-07T14:16:25;18.00;1.00
20233;DHT22;37438;55.674;13.074;2023-05-07T14:19:30;17.20;1.00
20233;DHT22;37438;55.674;13.074;2023-05-07T14:22:34;17.10;1.00
20233;DHT22;37438;55.674;13.074;2023-05-07T14:25:38;17.90;1.00
20233;DHT22;37438;55.674;13.074;2023-05-07T14:28:43;17.30;1.00
20233;DHT22;37438;55.674;13.074;2023-05-07T14:31:50;17.70;1.00
20233;DHT22;37438;55.674;13.074;2023-05-07T14:34:54;17.90;1.00
20233;DHT22;37438;55.674;13.074;2023-05-07T14:37:59;18.30;1.00
20233;DHT22;37438;55.674;13.074;2023-05-07T14:41:04;16.80;1.00
20233;DHT22;37438;55.674;13.074;2023-05-07T14:44:08;17.00;1.00
20233;DHT22;37438;55.674;13.074;2023-05-07T14:47:13;17.20;1.00
20233;DHT22;37438;55.674;13.074;2023-05-07T14:50:20;17.00;1.00
20233;DHT22;37438;55.674;13.074;2023-05-07T14:53:24;17.00;1.00
20233;DHT22;37438;55.674;13.074;2023-05-07T14:56:29;17.40;1.00
20233;DHT22;37438;55.674;13.074;2023-05-07T14:59:33;17.90;1.00
20233;DHT22;37438;55.674;13.074;2023-05-07T15:02:38;17.80;1.00
20233;DHT22;37438;55.674;13.074;2023-05-07T15:05:42;17.10;1.00
20233;DHT22;37438;55.674;13.074;2023-05-07T15:08:47;17.40;1.00
20233;DHT22;37438;55.674;13.074;2023-05-07T15:11:52;17.80;1.00
20233;DHT22;37438;55.674;13.074;2023-05-07T15:14:57;18.10;1.00
20233;DHT22;37438;55.674;13.074;2023-05-07T15:18:01;18.30;1.00
20233;DHT22;37438;55.674;13.074;2023-05-07T15:21:06;17.10;1.00
20233;DHT22;37438;55.674;13.074;2023-05-07T15:24:11;18.30;1.00
20233;DHT22;37438;55.674;13.074;2023-05-07T15:27:16;18.20;1.00
20233;DHT22;37438;55.674;13.074;2023-05-07T15:30:21;19.10;1.00
20233;DHT22;37438;55.674;13.074;2023-05-07T15:33:25;19.00;1.00
20233;DHT22;37438;55.674;13.074;2023-05-07T15:36:29;18.50;1.00
20233;DHT22;37438;55.674;13.074;2023-05-07T15:39:34;17.80;1.00
20233;DHT22;37438;55.674;13.074;2023-05-07T15:42:38;18.20;1.00
20233;DHT22;37438;55.674;13.074;2023-05-07T15:45:43;18.40;1.00
20233;DHT22;37438;55.674;13.074;2023-05-07T15:48:47;18.70;1.00
20233;DHT22;37438;55.674;13.074;2023-05-07T15:51:52;19.00;1.00
20233;DHT22;37438;55.674;13.074;2023-05-07T15:54:58;18.30;1.00
20233;DHT22;37438;55.674;13.074;2023-05-07T15:58:02;19.20;1.00
20233;DHT22;37438;55.674;13.074;2023-05-07T16:01:09;18.40;1.00
20233;DHT22;37438;55.674;13.074;2023-05-07T16:04:13;18.90;1.00
20233;DHT22;37438;55.674;13.074;2023-05-07T16:07:18;18.20;1.00
20233;DHT22;37438;55.674;13.074;2023-05-07T16:10:23;17.80;1.00
20233;DHT22;37438;55.674;13.074;2023-05-07T16:13:28;18.10;1.00
20233;DHT22;37438;55.674;13.074;2023-05-07T16:16:33;17.30;1.00
20233;DHT22;37438;55.674;13.074;2023-05-07T16:19:38;17.10;1.00
20233;DHT22;37438;55.674;13.074;2023-05-07T16:22:42;18.10;1.00
20233;DHT22;37438;55.674;13.074;2023-05-07T16:25:48;18.30;1.00
20233;DHT22;37438;55.674;13.074;2023-05-07T16:28:53;17.90;1.00
20233;DHT22;37438;55.674;13.074;2023-05-07T16:31:57;18.10;1.00
20233;DHT22;37438;55.674;13.074;2023-05-07T16:35:02;17.80;1.00
20233;DHT22;37438;55.674;13.074;2023-05-07T16:38:07;17.50;1.00
20233;DHT22;37438;55.674;13.074;2023-05-07T16:41:14;17.00;1.00
20233;DHT22;37438;55.674;13.074;2023-05-07T16:44:18;17.90;1.00
20233;DHT22;37438;55.674;13.074;2023-05-07T16:47:23;17.90;1.00
20233;DHT22;37438;55.674;13.074;2023-05-07T16:50:27;17.80;1.00
20233;DHT22;37438;55.674;13.074;2023-05-07T16:53:31;16.80;1.00
20233;DHT22;37438;55.674;13.074;2023-05-07T16:56:36;15.70;1.00
20233;DHT22;37438;55.674;13.074;2023-05-07T16:59:41;13.90;1.00
20233;DHT22;37438;55.674;13.074;2023-05-07T17:02:46;13.50;1.00
20233;DHT22;37438;55.674;13.074;2023-05-07T17:05:51;13.40;1.00
20233;DHT22;37438;55.674;13.074;2023-05-07T17:08:55;13.30;1.00
20233;DHT22;37438;55.674;13.074;2023-05-07T17:12:01;13.20;1.00
20233;DHT22;37438;55.674;13.074;2023-05-07T17:15:06;13.10;1.00
20233;DHT22;37438;55.674;13.074;2023-05-07T17:18:11;13.00;1.00
20233;DHT22;37438;55.674;13.074;2023-05-07T17:21:15;12.90;1.00
20233;DHT22;37438;55.674;13.074;2023-05-07T17:24:19;12.90;1.00
20233;DHT22;37438;55.674;13.074;2023-05-07T17:27:24;12.90;1.00
20233;DHT22;37438;55.674;13.074;2023-05-07T17:30:28;12.80;1.00
20233;DHT22;37438;55.674;13.074;2023-05-07T17:33:33;12.70;1.00
20233;DHT22;37438;55.674;13.074;2023-05-07T17:36:37;12.60;1.00
20233;DHT22;37438;55.674;13.074;2023-05-07T17:39:41;12.60;1.00
20233;DHT22;37438;55.674;13.074;2023-05-07T17:42:46;12.40;1.00
20233;DHT22;37438;55.674;13.074;2023-05-07T17:45:51;12.40;1.00
20233;DHT22;37438;55.674;13.074;2023-05-07T17:48:55;12.30;1.00
20233;DHT22;37438;55.674;13.074;2023-05-07T17:52:01;12.20;1.00
20233;DHT22;37438;55.674;13.074;2023-05-07T17:55:06;12.10;1.00
20233;DHT22;37438;55.674;13.074;2023-05-07T17:58:11;12.00;1.00
20233;DHT22;37438;55.674;13.074;2023-05-07T18:01:15;12.00;1.00
20233;DHT22;37438;55.674;13.074;2023-05-07T18:04:20;11.90;1.00
20233;DHT22;37438;55.674;13.074;2023-05-07T18:07:25;11.80;1.00
20233;DHT22;37438;55.674;13.074;2023-05-07T18:10:30;11.70;1.00
20233;DHT22;37438;55.674;13.074;2023-05-07T18:13:34;11.60;1.00
20233;DHT22;37438;55.674;13.074;2023-05-07T18:16:38;11.60;1.00
20233;DHT22;37438;55.674;13.074;2023-05-07T18:19:43;11.50;1.00
20233;DHT22;37438;55.674;13.074;2023-05-07T18:22:47;11.40;1.00
20233;DHT22;37438;55.674;13.074;2023-05-07T18:25:52;11.30;1.00
20233;DHT22;37438;55.674;13.074;2023-05-07T18:28:56;11.10;1.00
20233;DHT22;37438;55.674;13.074;2023-05-07T18:32:01;11.00;1.00
20233;DHT22;37438;55.674;13.074;2023-05-07T18:35:05;10.90;1.00
20233;DHT22;37438;55.674;13.074;2023-05-07T18:38:10;10.80;1.00
20233;DHT22;37438;55.674;13.074;2023-05-07T18:41:14;10.70;1.00
20233;DHT22;37438;55.674;13.074;2023-05-07T18:44:18;10.60;1.00
20233;DHT22;37438;55.674;13.074;2023-05-07T18:47:23;10.50;1.00
20233;DHT22;37438;55.674;13.074;2023-05-07T18:50:27;10.40;1.00
20233;DHT22;37438;55.674;13.074;2023-05-07T18:53:31;10.30;1.00
20233;DHT22;37438;55.674;13.074;2023-05-07T18:56:36;10.10;1.00
20233;DHT22;37438;55.674;13.074;2023-05-07T18:59:40;10.10;1.00
20233;DHT22;37438;55.674;13.074;2023-05-07T19:02:45;9.90;1.00
20233;DHT22;37438;55.674;13.074;2023-05-07T19:05:50;9.80;1.00
20233;DHT22;37438;55.674;13.074;2023-05-07T19:08:54;9.70;1.00
20233;DHT22;37438;55.674;13.074;2023-05-07T19:11:59;9.60;1.00
20233;DHT22;37438;55.674;13.074;2023-05-07T19:15:03;9.50;1.00
20233;DHT22;37438;55.674;13.074;2023-05-07T19:18:07;9.40;1.00
20233;DHT22;37438;55.674;13.074;2023-05-07T19:21:12;9.40;1.00
20233;DHT22;37438;55.674;13.074;2023-05-07T19:24:17;9.30;1.00
20233;DHT22;37438;55.674;13.074;2023-05-07T19:27:21;9.20;1.00
20233;DHT22;37438;55.674;13.074;2023-05-07T19:30:25;9.10;1.00
20233;DHT22;37438;55.674;13.074;2023-05-07T19:33:30;9.10;1.00
20233;DHT22;37438;55.674;13.074;2023-05-07T19:36:34;9.00;1.00
20233;DHT22;37438;55.674;13.074;2023-05-07T19:39:39;8.90;1.00
20233;DHT22;37438;55.674;13.074;2023-05-07T19:42:44;8.80;1.00
20233;DHT22;37438;55.674;13.074;2023-05-07T19:45:51;8.70;1.00